sensor_id;sensor_type;location;lat;lon;timestamp;temperature;humidity
26479;DHT22;14163;-26.142;27.992;2023-04-08T00:00:13;23.20;99.90
26479;DHT22;14163;-26.142;27.992;2023-04-08T00:02:43;23.20;99.90
26479;DHT22;14163;-26.142;27.992;2023-04-08T00:05:13;23.20;99.90
26479;DHT22;14163;-26.142;27.992;2023-04-08T00:07:43;23.10;99.90
26479;DHT22;14163;-26.142;27.992;2023-04-08T00:10:14;23.10;99.90
26479;DHT22;14163;-26.142;27.992;2023-04-08T00:12:43;23.10;99.90
26479;DHT22;14163;-26.142;27.992;2023-04-08T00:15:13;23.10;99.90
26479;DHT22;14163;-26.142;27.992;2023-04-08T00:17:43;23.10;99.90
26479;DHT22;14163;-26.142;27.992;2023-04-08T00:20:13;23.20;99.90
26479;DHT22;14163;-26.142;27.992;2023-04-08T00:22:42;23.10;99.90
26479;DHT22;14163;-26.142;27.992;2023-04-08T00:25:11;23.10;99.90
26479;DHT22;14163;-26.142;27.992;2023-04-08T00:27:42;23.10;99.90
26479;DHT22;14163;-26.142;27.992;2023-04-08T00:30:12;23.10;99.90
26479;DHT22;14163;-26.142;27.992;2023-04-08T00:32:42;23.10;99.90
26479;DHT22;14163;-26.142;27.992;2023-04-08T00:35:11;23.20;99.90
26479;DHT22;14163;-26.142;27.992;2023-04-08T00:37:41;23.30;99.90
26479;DHT22;14163;-26.142;27.992;2023-04-08T00:40:12;23.30;99.90
26479;DHT22;14163;-26.142;27.992;2023-04-08T00:42:44;23.30;99.90
26479;DHT22;14163;-26.142;27.992;2023-04-08T00:45:14;23.30;99.90
26479;DHT22;14163;-26.142;27.992;2023-04-08T00:47:43;23.30;99.90
26479;DHT22;14163;-26.142;27.992;2023-04-08T00:50:12;23.30;99.90
26479;DHT22;14163;-26.142;27.992;2023-04-08T00:52:42;23.30;99.90
26479;DHT22;14163;-26.142;27.992;2023-04-08T00:55:12;23.20;99.90
26479;DHT22;14163;-26.142;27.992;2023-04-08T00:57:43;23.10;99.90
26479;DHT22;14163;-26.142;27.992;2023-04-08T01:00:14;23.20;99.90
26479;DHT22;14163;-26.142;27.992;2023-04-08T01:02:50;23.10;99.90
26479;DHT22;14163;-26.142;27.992;2023-04-08T01:05:27;23.00;99.90
26479;DHT22;14163;-26.142;27.992;2023-04-08T01:07:59;23.00;99.90
26479;DHT22;14163;-26.142;27.992;2023-04-08T01:10:33;23.00;99.90
26479;DHT22;14163;-26.142;27.992;2023-04-08T01:13:09;23.00;99.90
26479;DHT22;14163;-26.142;27.992;2023-04-08T01:15:42;22.90;99.90
26479;DHT22;14163;-26.142;27.992;2023-04-08T01:18:13;22.90;99.90
26479;DHT22;14163;-26.142;27.992;2023-04-08T01:20:44;22.90;99.90
26479;DHT22;14163;-26.142;27.992;2023-04-08T01:23:22;22.90;99.90
26479;DHT22;14163;-26.142;27.992;2023-04-08T01:25:54;22.80;99.90
26479;DHT22;14163;-26.142;27.992;2023-04-08T01:28:27;22.80;99.90
26479;DHT22;14163;-26.142;27.992;2023-04-08T01:30:59;22.70;99.90
26479;DHT22;14163;-26.142;27.992;2023-04-08T01:33:30;22.60;99.90
26479;DHT22;14163;-26.142;27.992;2023-04-08T01:36:00;22.60;99.90
26479;DHT22;14163;-26.142;27.992;2023-04-08T01:38:31;22.60;99.90
26479;DHT22;14163;-26.142;27.992;2023-04-08T01:41:03;22.60;99.90
26479;DHT22;14163;-26.142;27.992;2023-04-08T01:43:33;22.60;99.90
26479;DHT22;14163;-26.142;27.992;2023-04-08T01:46:05;22.70;99.90
26479;DHT22;14163;-26.142;27.992;2023-04-08T01:48:35;22.60;99.90
26479;DHT22;14163;-26.142;27.992;2023-04-08T01:51:06;22.70;99.90
26479;DHT22;14163;-26.142;27.992;2023-04-08T01:53:37;22.70;99.90
26479;DHT22;14163;-26.142;27.992;2023-04-08T01:56:11;22.70;99.90
26479;DHT22;14163;-26.142;27.992;2023-04-08T01:58:45;22.80;99.90
26479;DHT22;14163;-26.142;27.992;2023-04-08T02:01:19;22.80;99.90
26479;DHT22;14163;-26.142;27.992;2023-04-08T02:03:49;22.80;99.90
26479;DHT22;14163;-26.142;27.992;2023-04-08T02:06:19;22.70;99.90
26479;DHT22;14163;-26.142;27.992;2023-04-08T02:08:49;22.80;99.90
26479;DHT22;14163;-26.142;27.992;2023-04-08T02:11:21;22.70;99.90
26479;DHT22;14163;-26.142;27.992;2023-04-08T02:13:51;22.70;99.90
26479;DHT22;14163;-26.142;27.992;2023-04-08T02:16:23;22.70;99.90
26479;DHT22;14163;-26.142;27.992;2023-04-08T02:18:57;22.70;99.90
26479;DHT22;14163;-26.142;27.992;2023-04-08T02:21:32;22.70;99.90
26479;DHT22;14163;-26.142;27.992;2023-04-08T02:24:06;22.60;99.90
26479;DHT22;14163;-26.142;27.992;2023-04-08T02:26:39;22.60;99.90
26479;DHT22;14163;-26.142;27.992;2023-04-08T02:29:13;22.60;99.90
26479;DHT22;14163;-26.142;27.992;2023-04-08T02:31:43;22.60;99.90
26479;DHT22;14163;-26.142;27.992;2023-04-08T02:34:14;22.60;99.90
26479;DHT22;14163;-26.142;27.992;2023-04-08T02:36:45;22.60;99.90
26479;DHT22;14163;-26.142;27.992;2023-04-08T02:39:14;22.60;99.90
26479;DHT22;14163;-26.142;27.992;2023-04-08T02:41:45;22.50;99.90
26479;DHT22;14163;-26.142;27.992;2023-04-08T02:44:14;22.50;99.90
26479;DHT22;14163;-26.142;27.992;2023-04-08T02:46:44;22.40;99.90
26479;DHT22;14163;-26.142;27.992;2023-04-08T02:49:14;22.40;99.90
26479;DHT22;14163;-26.142;27.992;2023-04-08T02:51:44;22.40;99.90
26479;DHT22;14163;-26.142;27.992;2023-04-08T02:54:13;22.20;99.90
26479;DHT22;14163;-26.142;27.992;2023-04-08T02:56:45;22.20;99.90
26479;DHT22;14163;-26.142;27.992;2023-04-08T02:59:15;22.20;99.90
26479;DHT22;14163;-26.142;27.992;2023-04-08T03:01:45;22.20;99.90
26479;DHT22;14163;-26.142;27.992;2023-04-08T03:04:15;22.20;99.90
26479;DHT22;14163;-26.142;27.992;2023-04-08T03:06:44;22.10;99.90
26479;DHT22;14163;-26.142;27.992;2023-04-08T03:09:14;22.00;99.90
26479;DHT22;14163;-26.142;27.992;2023-04-08T03:11:45;21.90;99.90
26479;DHT22;14163;-26.142;27.992;2023-04-08T03:14:19;21.90;99.90
26479;DHT22;14163;-26.142;27.992;2023-04-08T03:16:49;21.90;99.90
26479;DHT22;14163;-26.142;27.992;2023-04-08T03:19:18;21.90;99.90
26479;DHT22;14163;-26.142;27.992;2023-04-08T03:21:48;21.90;99.90
26479;DHT22;14163;-26.142;27.992;2023-04-08T03:24:18;21.90;99.90
26479;DHT22;14163;-26.142;27.992;2023-04-08T03:26:50;21.80;99.90
26479;DHT22;14163;-26.142;27.992;2023-04-08T03:29:20;21.80;99.90
26479;DHT22;14163;-26.142;27.992;2023-04-08T03:31:50;21.80;99.90
26479;DHT22;14163;-26.142;27.992;2023-04-08T03:34:20;21.80;99.90
26479;DHT22;14163;-26.142;27.992;2023-04-08T03:36:49;21.80;99.90
26479;DHT22;14163;-26.142;27.992;2023-04-08T03:39:19;21.80;99.90
26479;DHT22;14163;-26.142;27.992;2023-04-08T03:41:51;21.80;99.90
26479;DHT22;14163;-26.142;27.992;2023-04-08T03:44:21;21.80;99.90
26479;DHT22;14163;-26.142;27.992;2023-04-08T03:46:50;21.80;99.90
26479;DHT22;14163;-26.142;27.992;2023-04-08T03:49:20;21.70;99.90
26479;DHT22;14163;-26.142;27.992;2023-04-08T03:51:50;21.70;99.90
26479;DHT22;14163;-26.142;27.992;2023-04-08T03:54:19;21.80;99.90
26479;DHT22;14163;-26.142;27.992;2023-04-08T03:56:51;21.90;99.90
26479;DHT22;14163;-26.142;27.992;2023-04-08T03:59:20;21.90;99.90
26479;DHT22;14163;-26.142;27.992;2023-04-08T04:01:50;21.90;99.90
26479;DHT22;14163;-26.142;27.992;2023-04-08T04:04:19;21.90;99.90
26479;DHT22;14163;-26.142;27.992;2023-04-08T04:06:48;21.90;99.90
26479;DHT22;14163;-26.142;27.992;2023-04-08T04:09:17;21.90;99.90
26479;DHT22;14163;-26.142;27.992;2023-04-08T04:11:46;21.90;99.90
26479;DHT22;14163;-26.142;27.992;2023-04-08T04:14:17;21.80;99.90
26479;DHT22;14163;-26.142;27.992;2023-04-08T04:16:46;21.90;99.90
26479;DHT22;14163;-26.142;27.992;2023-04-08T04:19:16;21.90;99.90
26479;DHT22;14163;-26.142;27.992;2023-04-08T04:21:46;21.90;99.90
26479;DHT22;14163;-26.142;27.992;2023-04-08T04:24:16;21.90;99.90
26479;DHT22;14163;-26.142;27.992;2023-04-08T04:26:46;21.90;99.90
26479;DHT22;14163;-26.142;27.992;2023-04-08T04:29:18;21.80;99.90
26479;DHT22;14163;-26.142;27.992;2023-04-08T04:31:48;21.80;99.90
26479;DHT22;14163;-26.142;27.992;2023-04-08T04:34:18;21.80;99.90
26479;DHT22;14163;-26.142;27.992;2023-04-08T04:36:48;21.80;99.90
26479;DHT22;14163;-26.142;27.992;2023-04-08T04:39:18;21.90;99.90
26479;DHT22;14163;-26.142;27.992;2023-04-08T04:41:48;21.90;99.90
26479;DHT22;14163;-26.142;27.992;2023-04-08T04:44:20;21.90;99.90
26479;DHT22;14163;-26.142;27.992;2023-04-08T04:46:50;21.90;99.90
26479;DHT22;14163;-26.142;27.992;2023-04-08T04:49:20;21.90;99.90
26479;DHT22;14163;-26.142;27.992;2023-04-08T04:51:50;21.90;99.90
26479;DHT22;14163;-26.142;27.992;2023-04-08T04:54:20;21.90;99.90
26479;DHT22;14163;-26.142;27.992;2023-04-08T04:56:50;21.90;99.90
26479;DHT22;14163;-26.142;27.992;2023-04-08T04:59:23;21.90;99.90
26479;DHT22;14163;-26.142;27.992;2023-04-08T05:01:52;21.90;99.90
26479;DHT22;14163;-26.142;27.992;2023-04-08T05:04:23;21.80;99.90
26479;DHT22;14163;-26.142;27.992;2023-04-08T05:06:53;21.90;99.90
26479;DHT22;14163;-26.142;27.992;2023-04-08T05:09:23;21.90;99.90
26479;DHT22;14163;-26.142;27.992;2023-04-08T05:11:53;22.00;99.90
26479;DHT22;14163;-26.142;27.992;2023-04-08T05:14:27;22.10;99.90
26479;DHT22;14163;-26.142;27.992;2023-04-08T05:16:57;22.10;99.90
26479;DHT22;14163;-26.142;27.992;2023-04-08T05:19:27;22.20;99.90
26479;DHT22;14163;-26.142;27.992;2023-04-08T05:21:58;22.20;99.90
26479;DHT22;14163;-26.142;27.992;2023-04-08T05:24:28;22.20;99.90
26479;DHT22;14163;-26.142;27.992;2023-04-08T05:26:59;22.30;99.90
26479;DHT22;14163;-26.142;27.992;2023-04-08T05:29:30;22.30;99.90
26479;DHT22;14163;-26.142;27.992;2023-04-08T05:32:00;22.40;99.90
26479;DHT22;14163;-26.142;27.992;2023-04-08T05:34:32;22.50;99.90
26479;DHT22;14163;-26.142;27.992;2023-04-08T05:37:02;22.60;99.90
26479;DHT22;14163;-26.142;27.992;2023-04-08T05:39:31;22.60;99.90
26479;DHT22;14163;-26.142;27.992;2023-04-08T05:42:02;22.70;99.90
26479;DHT22;14163;-26.142;27.992;2023-04-08T05:44:34;22.70;99.90
26479;DHT22;14163;-26.142;27.992;2023-04-08T05:47:04;22.80;99.90
26479;DHT22;14163;-26.142;27.992;2023-04-08T05:49:33;22.90;99.90
26479;DHT22;14163;-26.142;27.992;2023-04-08T05:52:03;23.10;99.90
26479;DHT22;14163;-26.142;27.992;2023-04-08T05:54:33;23.10;99.90
26479;DHT22;14163;-26.142;27.992;2023-04-08T05:57:03;23.00;99.90
26479;DHT22;14163;-26.142;27.992;2023-04-08T05:59:34;22.90;99.90
26479;DHT22;14163;-26.142;27.992;2023-04-08T06:02:04;22.90;99.90
26479;DHT22;14163;-26.142;27.992;2023-04-08T06:04:34;23.00;99.90
26479;DHT22;14163;-26.142;27.992;2023-04-08T06:07:03;23.10;99.90
26479;DHT22;14163;-26.142;27.992;2023-04-08T06:09:35;23.10;99.90
26479;DHT22;14163;-26.142;27.992;2023-04-08T06:12:05;23.20;99.90
26479;DHT22;14163;-26.142;27.992;2023-04-08T06:14:35;23.20;99.90
26479;DHT22;14163;-26.142;27.992;2023-04-08T06:17:05;23.00;99.90
26479;DHT22;14163;-26.142;27.992;2023-04-08T06:19:34;23.00;99.90
26479;DHT22;14163;-26.142;27.992;2023-04-08T06:22:03;23.10;99.90
26479;DHT22;14163;-26.142;27.992;2023-04-08T06:24:33;23.20;99.90
26479;DHT22;14163;-26.142;27.992;2023-04-08T06:27:02;23.30;99.90
26479;DHT22;14163;-26.142;27.992;2023-04-08T06:29:31;23.40;99.90
26479;DHT22;14163;-26.142;27.992;2023-04-08T06:32:03;23.40;99.90
26479;DHT22;14163;-26.142;27.992;2023-04-08T06:34:32;23.50;99.90
26479;DHT22;14163;-26.142;27.992;2023-04-08T06:37:02;23.50;99.90
26479;DHT22;14163;-26.142;27.992;2023-04-08T06:39:32;23.50;99.90
26479;DHT22;14163;-26.142;27.992;2023-04-08T06:42:01;23.50;99.90
26479;DHT22;14163;-26.142;27.992;2023-04-08T06:44:30;23.70;99.90
26479;DHT22;14163;-26.142;27.992;2023-04-08T06:47:01;23.70;99.90
26479;DHT22;14163;-26.142;27.992;2023-04-08T06:49:31;23.90;99.90
26479;DHT22;14163;-26.142;27.992;2023-04-08T06:52:00;24.00;99.90
26479;DHT22;14163;-26.142;27.992;2023-04-08T06:54:29;24.20;99.90
26479;DHT22;14163;-26.142;27.992;2023-04-08T06:56:58;24.30;99.90
26479;DHT22;14163;-26.142;27.992;2023-04-08T06:59:28;24.20;99.90
26479;DHT22;14163;-26.142;27.992;2023-04-08T07:01:58;24.20;99.90
26479;DHT22;14163;-26.142;27.992;2023-04-08T07:04:30;24.20;99.90
26479;DHT22;14163;-26.142;27.992;2023-04-08T07:07:00;24.20;99.90
26479;DHT22;14163;-26.142;27.992;2023-04-08T07:09:30;24.10;99.90
26479;DHT22;14163;-26.142;27.992;2023-04-08T07:11:59;24.10;99.90
26479;DHT22;14163;-26.142;27.992;2023-04-08T07:14:29;24.10;99.90
26479;DHT22;14163;-26.142;27.992;2023-04-08T07:16:58;24.00;99.90
26479;DHT22;14163;-26.142;27.992;2023-04-08T07:19:31;24.10;99.90
26479;DHT22;14163;-26.142;27.992;2023-04-08T07:22:01;24.10;99.90
26479;DHT22;14163;-26.142;27.992;2023-04-08T07:24:32;24.10;99.90
26479;DHT22;14163;-26.142;27.992;2023-04-08T07:27:02;24.10;99.90
26479;DHT22;14163;-26.142;27.992;2023-04-08T07:29:32;24.00;99.90
26479;DHT22;14163;-26.142;27.992;2023-04-08T07:32:02;24.10;99.90
26479;DHT22;14163;-26.142;27.992;2023-04-08T07:34:34;24.20;99.90
26479;DHT22;14163;-26.142;27.992;2023-04-08T07:37:04;24.30;99.90
26479;DHT22;14163;-26.142;27.992;2023-04-08T07:39:34;24.30;99.90
26479;DHT22;14163;-26.142;27.992;2023-04-08T07:42:03;24.40;99.90
26479;DHT22;14163;-26.142;27.992;2023-04-08T07:44:33;24.40;99.90
26479;DHT22;14163;-26.142;27.992;2023-04-08T07:47:04;24.40;99.90
26479;DHT22;14163;-26.142;27.992;2023-04-08T07:49:36;24.50;99.90
26479;DHT22;14163;-26.142;27.992;2023-04-08T07:52:07;24.50;99.90
26479;DHT22;14163;-26.142;27.992;2023-04-08T07:54:37;24.50;99.90
26479;DHT22;14163;-26.142;27.992;2023-04-08T07:57:07;24.50;99.90
26479;DHT22;14163;-26.142;27.992;2023-04-08T07:59:37;24.60;99.90
26479;DHT22;14163;-26.142;27.992;2023-04-08T08:02:07;24.60;99.90
26479;DHT22;14163;-26.142;27.992;2023-04-08T08:04:39;24.70;99.90
26479;DHT22;14163;-26.142;27.992;2023-04-08T08:07:09;24.70;99.90
26479;DHT22;14163;-26.142;27.992;2023-04-08T08:09:39;24.80;99.90
26479;DHT22;14163;-26.142;27.992;2023-04-08T08:12:08;24.80;99.90
26479;DHT22;14163;-26.142;27.992;2023-04-08T08:14:38;24.90;99.90
26479;DHT22;14163;-26.142;27.992;2023-04-08T08:17:07;24.90;99.90
26479;DHT22;14163;-26.142;27.992;2023-04-08T08:19:38;24.90;99.90
26479;DHT22;14163;-26.142;27.992;2023-04-08T08:22:07;25.00;99.90
26479;DHT22;14163;-26.142;27.992;2023-04-08T08:24:37;25.10;99.90
26479;DHT22;14163;-26.142;27.992;2023-04-08T08:27:09;25.10;99.90
26479;DHT22;14163;-26.142;27.992;2023-04-08T08:29:39;25.20;99.90
26479;DHT22;14163;-26.142;27.992;2023-04-08T08:32:09;25.20;99.90
26479;DHT22;14163;-26.142;27.992;2023-04-08T08:34:41;25.30;99.90
26479;DHT22;14163;-26.142;27.992;2023-04-08T08:37:11;25.30;99.90
26479;DHT22;14163;-26.142;27.992;2023-04-08T08:39:40;25.20;99.90
26479;DHT22;14163;-26.142;27.992;2023-04-08T08:42:19;25.10;99.90
26479;DHT22;14163;-26.142;27.992;2023-04-08T08:44:49;25.20;99.90
26479;DHT22;14163;-26.142;27.992;2023-04-08T08:47:19;25.30;99.90
26479;DHT22;14163;-26.142;27.992;2023-04-08T08:49:51;25.40;99.90
26479;DHT22;14163;-26.142;27.992;2023-04-08T08:52:21;25.30;99.90
26479;DHT22;14163;-26.142;27.992;2023-04-08T08:54:57;25.30;99.90
26479;DHT22;14163;-26.142;27.992;2023-04-08T08:57:28;25.30;99.90
26479;DHT22;14163;-26.142;27.992;2023-04-08T08:59:58;25.30;99.90
26479;DHT22;14163;-26.142;27.992;2023-04-08T09:02:29;25.50;99.90
26479;DHT22;14163;-26.142;27.992;2023-04-08T09:05:03;25.60;99.90
26479;DHT22;14163;-26.142;27.992;2023-04-08T09:07:36;25.50;99.90
26479;DHT22;14163;-26.142;27.992;2023-04-08T09:10:07;25.50;99.90
26479;DHT22;14163;-26.142;27.992;2023-04-08T09:12:53;25.50;99.90
26479;DHT22;14163;-26.142;27.992;2023-04-08T09:15:24;25.70;99.90
26479;DHT22;14163;-26.142;27.992;2023-04-08T09:17:54;25.70;99.90
26479;DHT22;14163;-26.142;27.992;2023-04-08T09:20:27;25.80;99.90
26479;DHT22;14163;-26.142;27.992;2023-04-08T09:22:58;26.10;99.90
26479;DHT22;14163;-26.142;27.992;2023-04-08T09:25:30;26.30;99.90
26479;DHT22;14163;-26.142;27.992;2023-04-08T09:28:00;26.40;99.90
26479;DHT22;14163;-26.142;27.992;2023-04-08T09:30:32;26.60;99.90
26479;DHT22;14163;-26.142;27.992;2023-04-08T09:33:02;26.80;99.90
26479;DHT22;14163;-26.142;27.992;2023-04-08T09:35:35;26.90;99.90
26479;DHT22;14163;-26.142;27.992;2023-04-08T09:38:05;26.90;99.90
26479;DHT22;14163;-26.142;27.992;2023-04-08T09:40:34;26.90;99.90
26479;DHT22;14163;-26.142;27.992;2023-04-08T09:43:05;27.00;99.90
26479;DHT22;14163;-26.142;27.992;2023-04-08T09:45:39;27.10;99.90
26479;DHT22;14163;-26.142;27.992;2023-04-08T09:48:15;27.30;99.50
26479;DHT22;14163;-26.142;27.992;2023-04-08T09:50:50;27.50;99.80
26479;DHT22;14163;-26.142;27.992;2023-04-08T09:53:25;27.40;99.80
26479;DHT22;14163;-26.142;27.992;2023-04-08T09:55:58;27.60;98.00
26479;DHT22;14163;-26.142;27.992;2023-04-08T09:58:38;27.10;98.20
26479;DHT22;14163;-26.142;27.992;2023-04-08T10:01:13;27.20;98.70
26479;DHT22;14163;-26.142;27.992;2023-04-08T10:03:48;27.50;98.60
26479;DHT22;14163;-26.142;27.992;2023-04-08T10:06:27;27.70;97.90
26479;DHT22;14163;-26.142;27.992;2023-04-08T10:08:58;27.90;97.60
26479;DHT22;14163;-26.142;27.992;2023-04-08T10:11:30;28.10;97.50
26479;DHT22;14163;-26.142;27.992;2023-04-08T10:14:00;28.40;96.10
26479;DHT22;14163;-26.142;27.992;2023-04-08T10:16:31;28.10;94.70
26479;DHT22;14163;-26.142;27.992;2023-04-08T10:19:01;27.90;95.40
26479;DHT22;14163;-26.142;27.992;2023-04-08T10:21:37;28.00;96.20
26479;DHT22;14163;-26.142;27.992;2023-04-08T10:24:09;29.00;96.00
26479;DHT22;14163;-26.142;27.992;2023-04-08T10:26:40;29.90;93.70
26479;DHT22;14163;-26.142;27.992;2023-04-08T10:29:33;31.00;92.10
26479;DHT22;14163;-26.142;27.992;2023-04-08T10:32:03;32.20;90.20
26479;DHT22;14163;-26.142;27.992;2023-04-08T10:34:33;33.00;86.10
26479;DHT22;14163;-26.142;27.992;2023-04-08T10:37:05;34.00;83.00
26479;DHT22;14163;-26.142;27.992;2023-04-08T10:39:36;35.00;78.60
26479;DHT22;14163;-26.142;27.992;2023-04-08T10:42:08;35.00;74.20
26479;DHT22;14163;-26.142;27.992;2023-04-08T10:44:44;34.80;72.10
26479;DHT22;14163;-26.142;27.992;2023-04-08T10:47:14;34.80;73.40
26479;DHT22;14163;-26.142;27.992;2023-04-08T10:49:43;34.20;72.60
26479;DHT22;14163;-26.142;27.992;2023-04-08T10:52:15;34.00;72.50
26479;DHT22;14163;-26.142;27.992;2023-04-08T10:54:47;34.10;72.10
26479;DHT22;14163;-26.142;27.992;2023-04-08T10:57:23;34.00;72.30
26479;DHT22;14163;-26.142;27.992;2023-04-08T10:59:53;34.60;70.00
26479;DHT22;14163;-26.142;27.992;2023-04-08T11:02:22;35.60;67.40
26479;DHT22;14163;-26.142;27.992;2023-04-08T11:04:59;36.30;66.40
26479;DHT22;14163;-26.142;27.992;2023-04-08T11:07:32;35.50;65.90
26479;DHT22;14163;-26.142;27.992;2023-04-08T11:10:03;35.30;65.70
26479;DHT22;14163;-26.142;27.992;2023-04-08T11:12:32;34.90;64.00
26479;DHT22;14163;-26.142;27.992;2023-04-08T11:15:03;35.50;62.90
26479;DHT22;14163;-26.142;27.992;2023-04-08T11:17:34;35.80;63.60
26479;DHT22;14163;-26.142;27.992;2023-04-08T11:20:05;35.60;62.80
26479;DHT22;14163;-26.142;27.992;2023-04-08T11:22:39;35.60;62.90
26479;DHT22;14163;-26.142;27.992;2023-04-08T11:25:09;36.10;59.80
26479;DHT22;14163;-26.142;27.992;2023-04-08T11:27:38;36.10;60.60
26479;DHT22;14163;-26.142;27.992;2023-04-08T11:30:09;36.40;61.00
26479;DHT22;14163;-26.142;27.992;2023-04-08T11:32:38;37.00;59.60
26479;DHT22;14163;-26.142;27.992;2023-04-08T11:35:08;36.20;58.90
26479;DHT22;14163;-26.142;27.992;2023-04-08T11:37:40;35.70;60.60
26479;DHT22;14163;-26.142;27.992;2023-04-08T11:40:11;35.50;61.50
26479;DHT22;14163;-26.142;27.992;2023-04-08T11:42:40;35.30;61.20
26479;DHT22;14163;-26.142;27.992;2023-04-08T11:45:11;35.70;61.70
26479;DHT22;14163;-26.142;27.992;2023-04-08T11:47:40;36.30;61.00
26479;DHT22;14163;-26.142;27.992;2023-04-08T11:50:10;36.30;59.00
26479;DHT22;14163;-26.142;27.992;2023-04-08T11:52:47;36.40;58.80
26479;DHT22;14163;-26.142;27.992;2023-04-08T11:55:23;36.80;59.20
26479;DHT22;14163;-26.142;27.992;2023-04-08T11:57:53;37.20;58.70
26479;DHT22;14163;-26.142;27.992;2023-04-08T12:00:23;37.90;57.50
26479;DHT22;14163;-26.142;27.992;2023-04-08T12:02:54;38.30;57.10
26479;DHT22;14163;-26.142;27.992;2023-04-08T12:05:23;38.10;57.20
26479;DHT22;14163;-26.142;27.992;2023-04-08T12:07:55;37.20;56.80
26479;DHT22;14163;-26.142;27.992;2023-04-08T12:10:24;35.70;58.80
26479;DHT22;14163;-26.142;27.992;2023-04-08T12:12:53;35.30;59.40
26479;DHT22;14163;-26.142;27.992;2023-04-08T12:15:23;34.60;60.30
26479;DHT22;14163;-26.142;27.992;2023-04-08T12:17:52;33.60;62.30
26479;DHT22;14163;-26.142;27.992;2023-04-08T12:20:21;34.10;62.90
26479;DHT22;14163;-26.142;27.992;2023-04-08T12:22:51;34.50;61.90
26479;DHT22;14163;-26.142;27.992;2023-04-08T12:25:21;35.00;61.90
26479;DHT22;14163;-26.142;27.992;2023-04-08T12:27:51;35.80;60.60
26479;DHT22;14163;-26.142;27.992;2023-04-08T12:30:20;35.80;59.80
26479;DHT22;14163;-26.142;27.992;2023-04-08T12:32:50;35.90;59.20
26479;DHT22;14163;-26.142;27.992;2023-04-08T12:35:21;35.50;59.90
26479;DHT22;14163;-26.142;27.992;2023-04-08T12:37:50;35.30;60.70
26479;DHT22;14163;-26.142;27.992;2023-04-08T12:40:22;35.20;60.80
26479;DHT22;14163;-26.142;27.992;2023-04-08T12:42:51;34.90;60.50
26479;DHT22;14163;-26.142;27.992;2023-04-08T12:45:21;34.70;61.10
26479;DHT22;14163;-26.142;27.992;2023-04-08T12:47:51;34.50;61.70
26479;DHT22;14163;-26.142;27.992;2023-04-08T12:50:21;34.40;60.10
26479;DHT22;14163;-26.142;27.992;2023-04-08T12:52:51;34.40;60.00
26479;DHT22;14163;-26.142;27.992;2023-04-08T12:55:22;34.00;60.20
26479;DHT22;14163;-26.142;27.992;2023-04-08T12:57:52;33.80;60.80
26479;DHT22;14163;-26.142;27.992;2023-04-08T13:00:22;33.70;62.00
26479;DHT22;14163;-26.142;27.992;2023-04-08T13:02:51;33.60;61.80
26479;DHT22;14163;-26.142;27.992;2023-04-08T13:05:21;33.50;61.90
26479;DHT22;14163;-26.142;27.992;2023-04-08T13:07:50;33.40;62.30
26479;DHT22;14163;-26.142;27.992;2023-04-08T13:10:21;33.30;61.40
26479;DHT22;14163;-26.142;27.992;2023-04-08T13:12:50;33.00;61.70
26479;DHT22;14163;-26.142;27.992;2023-04-08T13:15:20;32.60;62.80
26479;DHT22;14163;-26.142;27.992;2023-04-08T13:17:50;32.30;63.50
26479;DHT22;14163;-26.142;27.992;2023-04-08T13:20:20;32.20;64.30
26479;DHT22;14163;-26.142;27.992;2023-04-08T13:22:51;32.40;63.70
26479;DHT22;14163;-26.142;27.992;2023-04-08T13:25:23;32.60;62.70
26479;DHT22;14163;-26.142;27.992;2023-04-08T13:27:53;32.40;61.50
26479;DHT22;14163;-26.142;27.992;2023-04-08T13:30:23;32.10;62.10
26479;DHT22;14163;-26.142;27.992;2023-04-08T13:32:52;31.90;61.10
26479;DHT22;14163;-26.142;27.992;2023-04-08T13:35:21;31.90;61.10
26479;DHT22;14163;-26.142;27.992;2023-04-08T13:37:50;31.90;62.00
26479;DHT22;14163;-26.142;27.992;2023-04-08T13:40:20;32.00;62.90
26479;DHT22;14163;-26.142;27.992;2023-04-08T13:42:51;31.90;63.30
26479;DHT22;14163;-26.142;27.992;2023-04-08T13:45:21;31.90;63.50
26479;DHT22;14163;-26.142;27.992;2023-04-08T13:47:50;31.70;62.80
26479;DHT22;14163;-26.142;27.992;2023-04-08T13:50:19;31.30;63.80
26479;DHT22;14163;-26.142;27.992;2023-04-08T13:52:48;31.10;64.00
26479;DHT22;14163;-26.142;27.992;2023-04-08T13:55:18;30.70;63.60
26479;DHT22;14163;-26.142;27.992;2023-04-08T13:57:48;30.50;64.90
26479;DHT22;14163;-26.142;27.992;2023-04-08T14:00:19;30.50;64.50
26479;DHT22;14163;-26.142;27.992;2023-04-08T14:02:48;30.60;65.00
26479;DHT22;14163;-26.142;27.992;2023-04-08T14:05:18;31.00;63.20
26479;DHT22;14163;-26.142;27.992;2023-04-08T14:07:47;31.00;62.80
26479;DHT22;14163;-26.142;27.992;2023-04-08T14:10:16;31.00;62.60
26479;DHT22;14163;-26.142;27.992;2023-04-08T14:12:46;31.00;62.90
26479;DHT22;14163;-26.142;27.992;2023-04-08T14:15:18;31.10;61.90
26479;DHT22;14163;-26.142;27.992;2023-04-08T14:17:47;31.20;61.90
26479;DHT22;14163;-26.142;27.992;2023-04-08T14:20:17;31.20;61.10
26479;DHT22;14163;-26.142;27.992;2023-04-08T14:22:47;31.00;62.70
26479;DHT22;14163;-26.142;27.992;2023-04-08T14:25:16;31.00;63.20
26479;DHT22;14163;-26.142;27.992;2023-04-08T14:27:46;30.90;62.60
26479;DHT22;14163;-26.142;27.992;2023-04-08T14:30:15;30.70;62.50
26479;DHT22;14163;-26.142;27.992;2023-04-08T14:32:46;30.50;62.80
26479;DHT22;14163;-26.142;27.992;2023-04-08T14:35:16;30.70;62.90
26479;DHT22;14163;-26.142;27.992;2023-04-08T14:37:45;30.70;64.20
26479;DHT22;14163;-26.142;27.992;2023-04-08T14:40:15;30.40;64.50
26479;DHT22;14163;-26.142;27.992;2023-04-08T14:42:44;30.00;65.90
26479;DHT22;14163;-26.142;27.992;2023-04-08T14:45:16;30.30;65.50
26479;DHT22;14163;-26.142;27.992;2023-04-08T14:47:47;30.50;65.70
26479;DHT22;14163;-26.142;27.992;2023-04-08T14:50:17;30.40;64.30
26479;DHT22;14163;-26.142;27.992;2023-04-08T14:52:48;30.00;65.60
26479;DHT22;14163;-26.142;27.992;2023-04-08T14:55:18;30.20;65.20
26479;DHT22;14163;-26.142;27.992;2023-04-08T14:57:49;30.20;64.60
26479;DHT22;14163;-26.142;27.992;2023-04-08T15:00:19;29.80;64.90
26479;DHT22;14163;-26.142;27.992;2023-04-08T16:03:08;25.10;83.90
26479;DHT22;14163;-26.142;27.992;2023-04-08T16:05:38;25.10;84.50
26479;DHT22;14163;-26.142;27.992;2023-04-08T16:08:07;25.70;83.40
26479;DHT22;14163;-26.142;27.992;2023-04-08T16:10:37;26.30;81.80
26479;DHT22;14163;-26.142;27.992;2023-04-08T16:13:06;26.90;80.40
26479;DHT22;14163;-26.142;27.992;2023-04-08T16:15:35;27.20;79.40
26479;DHT22;14163;-26.142;27.992;2023-04-08T16:18:06;27.30;78.90
26479;DHT22;14163;-26.142;27.992;2023-04-08T16:20:37;27.50;78.70
26479;DHT22;14163;-26.142;27.992;2023-04-08T16:23:06;27.70;77.90